sensor_id;sensor_type;location;lat;lon;timestamp;P1;durP1;ratioP1;P2;durP2;ratioP2
77544;SDS011;66672;50.328;7.610;2023-02-04T00:00:07;11.15;;;3.38;;
77544;SDS011;66672;50.328;7.610;2023-02-04T00:02:35;13.73;;;5.07;;
77544;SDS011;66672;50.328;7.610;2023-02-04T00:05:02;17.90;;;4.57;;
77544;SDS011;66672;50.328;7.610;2023-02-04T00:07:27;15.60;;;4.28;;
77544;SDS011;66672;50.328;7.610;2023-02-04T00:09:52;14.80;;;4.72;;
77544;SDS011;66672;50.328;7.610;2023-02-04T00:12:18;16.40;;;4.47;;
77544;SDS011;66672;50.328;7.610;2023-02-04T00:14:43;11.77;;;4.13;;
77544;SDS011;66672;50.328;7.610;2023-02-04T00:17:08;15.45;;;4.78;;
77544;SDS011;66672;50.328;7.610;2023-02-04T00:19:37;13.52;;;4.70;;
77544;SDS011;66672;50.328;7.610;2023-02-04T00:22:03;18.15;;;4.88;;
77544;SDS011;66672;50.328;7.610;2023-02-04T00:24:29;14.48;;;4.20;;
77544;SDS011;66672;50.328;7.610;2023-02-04T00:26:55;13.98;;;5.47;;
77544;SDS011;66672;50.328;7.610;2023-02-04T00:29:21;17.77;;;4.93;;
77544;SDS011;66672;50.328;7.610;2023-02-04T00:31:46;15.40;;;4.88;;
77544;SDS011;66672;50.328;7.610;2023-02-04T00:34:12;15.75;;;5.30;;
77544;SDS011;66672;50.328;7.610;2023-02-04T00:36:37;8.88;;;3.90;;
77544;SDS011;66672;50.328;7.610;2023-02-04T00:39:02;14.88;;;4.93;;
77544;SDS011;66672;50.328;7.610;2023-02-04T00:41:27;12.70;;;3.90;;
77544;SDS011;66672;50.328;7.610;2023-02-04T00:43:53;12.55;;;3.95;;
77544;SDS011;66672;50.328;7.610;2023-02-04T00:46:18;14.40;;;4.20;;
77544;SDS011;66672;50.328;7.610;2023-02-04T00:48:43;15.38;;;4.32;;
77544;SDS011;66672;50.328;7.610;2023-02-04T00:51:09;15.38;;;3.90;;
77544;SDS011;66672;50.328;7.610;2023-02-04T00:53:34;18.95;;;4.93;;
77544;SDS011;66672;50.328;7.610;2023-02-04T00:55:59;15.50;;;3.70;;
77544;SDS011;66672;50.328;7.610;2023-02-04T00:58:24;14.93;;;4.10;;
77544;SDS011;66672;50.328;7.610;2023-02-04T01:00:50;16.27;;;3.70;;
77544;SDS011;66672;50.328;7.610;2023-02-04T01:03:15;17.13;;;4.63;;
77544;SDS011;66672;50.328;7.610;2023-02-04T01:05:40;12.45;;;3.78;;
77544;SDS011;66672;50.328;7.610;2023-02-04T01:08:06;16.23;;;4.05;;
77544;SDS011;66672;50.328;7.610;2023-02-04T01:10:31;9.57;;;3.00;;
77544;SDS011;66672;50.328;7.610;2023-02-04T01:12:56;13.50;;;3.75;;
77544;SDS011;66672;50.328;7.610;2023-02-04T01:15:21;14.55;;;3.65;;
77544;SDS011;66672;50.328;7.610;2023-02-04T01:17:47;14.52;;;3.17;;
77544;SDS011;66672;50.328;7.610;2023-02-04T01:20:13;11.73;;;3.00;;
77544;SDS011;66672;50.328;7.610;2023-02-04T01:22:38;18.48;;;3.88;;
77544;SDS011;66672;50.328;7.610;2023-02-04T01:25:04;13.48;;;3.88;;
77544;SDS011;66672;50.328;7.610;2023-02-04T01:27:29;13.80;;;3.78;;
77544;SDS011;66672;50.328;7.610;2023-02-04T01:29:55;12.18;;;3.20;;
77544;SDS011;66672;50.328;7.610;2023-02-04T01:32:20;20.45;;;3.78;;
77544;SDS011;66672;50.328;7.610;2023-02-04T01:34:45;15.07;;;3.28;;
77544;SDS011;66672;50.328;7.610;2023-02-04T01:37:11;11.77;;;3.20;;
77544;SDS011;66672;50.328;7.610;2023-02-04T01:39:36;14.25;;;3.50;;
77544;SDS011;66672;50.328;7.610;2023-02-04T01:42:02;13.48;;;3.88;;
77544;SDS011;66672;50.328;7.610;2023-02-04T01:44:27;9.65;;;3.20;;
77544;SDS011;66672;50.328;7.610;2023-02-04T01:46:53;10.82;;;3.83;;
77544;SDS011;66672;50.328;7.610;2023-02-04T01:49:19;15.18;;;4.15;;
77544;SDS011;66672;50.328;7.610;2023-02-04T01:51:44;19.33;;;4.30;;
77544;SDS011;66672;50.328;7.610;2023-02-04T01:54:13;16.52;;;4.30;;
77544;SDS011;66672;50.328;7.610;2023-02-04T01:56:42;16.35;;;4.07;;
77544;SDS011;66672;50.328;7.610;2023-02-04T01:59:10;21.60;;;4.50;;
77544;SDS011;66672;50.328;7.610;2023-02-04T02:04:07;11.85;;;4.20;;
77544;SDS011;66672;50.328;7.610;2023-02-04T02:06:34;20.98;;;4.80;;
77544;SDS011;66672;50.328;7.610;2023-02-04T02:09:03;15.52;;;5.07;;
77544;SDS011;66672;50.328;7.610;2023-02-04T02:11:28;15.20;;;5.00;;
77544;SDS011;66672;50.328;7.610;2023-02-04T02:13:54;12.98;;;4.00;;
77544;SDS011;66672;50.328;7.610;2023-02-04T02:16:20;16.75;;;4.75;;
77544;SDS011;66672;50.328;7.610;2023-02-04T02:18:45;22.15;;;5.75;;
77544;SDS011;66672;50.328;7.610;2023-02-04T02:21:11;18.35;;;4.95;;
77544;SDS011;66672;50.328;7.610;2023-02-04T02:23:49;15.25;;;4.38;;
77544;SDS011;66672;50.328;7.610;2023-02-04T02:26:16;13.60;;;4.10;;
77544;SDS011;66672;50.328;7.610;2023-02-04T02:28:45;18.05;;;5.97;;
77544;SDS011;66672;50.328;7.610;2023-02-04T02:31:12;19.25;;;5.50;;
77544;SDS011;66672;50.328;7.610;2023-02-04T02:33:42;16.52;;;5.45;;
77544;SDS011;66672;50.328;7.610;2023-02-04T02:36:08;17.75;;;5.72;;
77544;SDS011;66672;50.328;7.610;2023-02-04T02:38:34;15.70;;;4.93;;
77544;SDS011;66672;50.328;7.610;2023-02-04T02:40:59;25.55;;;5.47;;
77544;SDS011;66672;50.328;7.610;2023-02-04T02:43:25;16.10;;;5.00;;
77544;SDS011;66672;50.328;7.610;2023-02-04T02:45:53;23.42;;;5.53;;
77544;SDS011;66672;50.328;7.610;2023-02-04T02:48:21;15.38;;;4.70;;
77544;SDS011;66672;50.328;7.610;2023-02-04T02:50:46;17.02;;;6.25;;
77544;SDS011;66672;50.328;7.610;2023-02-04T02:53:13;15.82;;;4.93;;
77544;SDS011;66672;50.328;7.610;2023-02-04T02:55:41;23.13;;;6.43;;
77544;SDS011;66672;50.328;7.610;2023-02-04T03:01:03;20.08;;;5.80;;
77544;SDS011;66672;50.328;7.610;2023-02-04T03:03:34;14.00;;;5.65;;
77544;SDS011;66672;50.328;7.610;2023-02-04T03:06:04;12.68;;;5.20;;
77544;SDS011;66672;50.328;7.610;2023-02-04T03:08:34;16.75;;;5.60;;
77544;SDS011;66672;50.328;7.610;2023-02-04T03:11:00;18.48;;;5.53;;
77544;SDS011;66672;50.328;7.610;2023-02-04T03:13:25;15.85;;;4.88;;
77544;SDS011;66672;50.328;7.610;2023-02-04T03:15:51;15.60;;;6.32;;
77544;SDS011;66672;50.328;7.610;2023-02-04T03:18:18;16.05;;;5.45;;
77544;SDS011;66672;50.328;7.610;2023-02-04T03:20:44;14.43;;;3.92;;
77544;SDS011;66672;50.328;7.610;2023-02-04T03:23:11;14.32;;;5.45;;
77544;SDS011;66672;50.328;7.610;2023-02-04T03:25:36;13.05;;;5.03;;
77544;SDS011;66672;50.328;7.610;2023-02-04T03:28:02;19.25;;;5.22;;
77544;SDS011;66672;50.328;7.610;2023-02-04T03:30:29;17.45;;;5.25;;
77544;SDS011;66672;50.328;7.610;2023-02-04T03:32:55;14.88;;;5.07;;
77544;SDS011;66672;50.328;7.610;2023-02-04T03:35:20;20.02;;;6.70;;
77544;SDS011;66672;50.328;7.610;2023-02-04T03:37:46;16.90;;;5.40;;
77544;SDS011;66672;50.328;7.610;2023-02-04T03:40:11;14.87;;;5.80;;
77544;SDS011;66672;50.328;7.610;2023-02-04T03:42:37;12.48;;;5.40;;
77544;SDS011;66672;50.328;7.610;2023-02-04T03:45:02;18.10;;;5.43;;
77544;SDS011;66672;50.328;7.610;2023-02-04T03:47:28;14.73;;;4.38;;
77544;SDS011;66672;50.328;7.610;2023-02-04T03:49:53;12.63;;;4.85;;
77544;SDS011;66672;50.328;7.610;2023-02-04T03:52:18;14.63;;;4.95;;
77544;SDS011;66672;50.328;7.610;2023-02-04T03:54:46;18.50;;;5.30;;
77544;SDS011;66672;50.328;7.610;2023-02-04T03:57:12;15.75;;;4.60;;
77544;SDS011;66672;50.328;7.610;2023-02-04T03:59:37;13.75;;;4.57;;
77544;SDS011;66672;50.328;7.610;2023-02-04T04:02:03;15.03;;;4.80;;
77544;SDS011;66672;50.328;7.610;2023-02-04T04:04:28;16.27;;;4.82;;
77544;SDS011;66672;50.328;7.610;2023-02-04T04:06:53;16.00;;;5.47;;
77544;SDS011;66672;50.328;7.610;2023-02-04T04:09:19;12.53;;;5.50;;
77544;SDS011;66672;50.328;7.610;2023-02-04T04:11:44;13.13;;;3.93;;
77544;SDS011;66672;50.328;7.610;2023-02-04T04:14:10;14.10;;;5.28;;
77544;SDS011;66672;50.328;7.610;2023-02-04T04:16:35;16.27;;;5.15;;
77544;SDS011;66672;50.328;7.610;2023-02-04T04:19:00;14.63;;;4.57;;
77544;SDS011;66672;50.328;7.610;2023-02-04T04:21:26;12.85;;;4.63;;
77544;SDS011;66672;50.328;7.610;2023-02-04T04:23:51;12.83;;;4.40;;
77544;SDS011;66672;50.328;7.610;2023-02-04T04:26:16;12.77;;;4.93;;
77544;SDS011;66672;50.328;7.610;2023-02-04T04:28:41;13.07;;;5.07;;
77544;SDS011;66672;50.328;7.610;2023-02-04T04:31:07;11.40;;;4.50;;
77544;SDS011;66672;50.328;7.610;2023-02-04T04:33:32;15.67;;;4.80;;
77544;SDS011;66672;50.328;7.610;2023-02-04T04:35:58;15.90;;;5.13;;
77544;SDS011;66672;50.328;7.610;2023-02-04T04:38:23;21.87;;;6.00;;
77544;SDS011;66672;50.328;7.610;2023-02-04T04:40:48;13.27;;;4.63;;
77544;SDS011;66672;50.328;7.610;2023-02-04T04:43:14;17.03;;;5.87;;
77544;SDS011;66672;50.328;7.610;2023-02-04T04:45:39;17.57;;;5.60;;
77544;SDS011;66672;50.328;7.610;2023-02-04T04:48:04;16.80;;;5.30;;
77544;SDS011;66672;50.328;7.610;2023-02-04T04:50:29;12.30;;;4.73;;
77544;SDS011;66672;50.328;7.610;2023-02-04T04:52:55;13.90;;;4.50;;
77544;SDS011;66672;50.328;7.610;2023-02-04T04:55:20;21.05;;;6.00;;
77544;SDS011;66672;50.328;7.610;2023-02-04T04:57:45;20.37;;;5.07;;
77544;SDS011;66672;50.328;7.610;2023-02-04T05:00:13;12.10;;;5.30;;
77544;SDS011;66672;50.328;7.610;2023-02-04T05:02:41;12.27;;;5.10;;
77544;SDS011;66672;50.328;7.610;2023-02-04T05:05:07;15.93;;;4.93;;
77544;SDS011;66672;50.328;7.610;2023-02-04T05:07:33;13.07;;;4.40;;
77544;SDS011;66672;50.328;7.610;2023-02-04T05:09:58;16.45;;;5.07;;
77544;SDS011;66672;50.328;7.610;2023-02-04T05:12:23;16.00;;;5.47;;
77544;SDS011;66672;50.328;7.610;2023-02-04T05:14:48;17.20;;;6.35;;
77544;SDS011;66672;50.328;7.610;2023-02-04T05:17:14;14.13;;;4.75;;
77544;SDS011;66672;50.328;7.610;2023-02-04T05:19:39;14.73;;;5.37;;
77544;SDS011;66672;50.328;7.610;2023-02-04T05:22:04;13.93;;;4.72;;
77544;SDS011;66672;50.328;7.610;2023-02-04T05:24:30;16.60;;;5.10;;
77544;SDS011;66672;50.328;7.610;2023-02-04T05:26:55;18.23;;;5.65;;
77544;SDS011;66672;50.328;7.610;2023-02-04T05:29:20;16.48;;;5.32;;
77544;SDS011;66672;50.328;7.610;2023-02-04T05:31:46;12.48;;;6.13;;
77544;SDS011;66672;50.328;7.610;2023-02-04T05:34:11;17.60;;;5.57;;
77544;SDS011;66672;50.328;7.610;2023-02-04T05:36:36;18.92;;;6.47;;
77544;SDS011;66672;50.328;7.610;2023-02-04T05:39:01;22.38;;;5.70;;
77544;SDS011;66672;50.328;7.610;2023-02-04T05:41:27;14.40;;;5.55;;
77544;SDS011;66672;50.328;7.610;2023-02-04T05:43:52;15.27;;;6.43;;
77544;SDS011;66672;50.328;7.610;2023-02-04T05:46:17;17.17;;;5.43;;
77544;SDS011;66672;50.328;7.610;2023-02-04T05:48:43;19.20;;;5.93;;
77544;SDS011;66672;50.328;7.610;2023-02-04T05:51:08;22.98;;;5.80;;
77544;SDS011;66672;50.328;7.610;2023-02-04T05:53:34;15.65;;;5.68;;
77544;SDS011;66672;50.328;7.610;2023-02-04T05:55:59;16.63;;;5.40;;
77544;SDS011;66672;50.328;7.610;2023-02-04T05:58:24;13.88;;;6.03;;
77544;SDS011;66672;50.328;7.610;2023-02-04T06:00:57;17.13;;;6.70;;
77544;SDS011;66672;50.328;7.610;2023-02-04T06:03:22;17.73;;;5.55;;
77544;SDS011;66672;50.328;7.610;2023-02-04T06:05:47;15.07;;;5.93;;
77544;SDS011;66672;50.328;7.610;2023-02-04T06:08:12;18.55;;;6.32;;
77544;SDS011;66672;50.328;7.610;2023-02-04T06:10:39;18.85;;;5.97;;
77544;SDS011;66672;50.328;7.610;2023-02-04T06:13:05;17.65;;;6.20;;
77544;SDS011;66672;50.328;7.610;2023-02-04T06:15:30;16.08;;;5.72;;
77544;SDS011;66672;50.328;7.610;2023-02-04T06:17:55;16.15;;;5.80;;
77544;SDS011;66672;50.328;7.610;2023-02-04T06:20:22;16.60;;;6.47;;
77544;SDS011;66672;50.328;7.610;2023-02-04T06:22:47;16.23;;;6.18;;
77544;SDS011;66672;50.328;7.610;2023-02-04T06:25:16;17.30;;;6.32;;
77544;SDS011;66672;50.328;7.610;2023-02-04T06:27:42;16.53;;;6.17;;
77544;SDS011;66672;50.328;7.610;2023-02-04T06:30:07;22.27;;;7.10;;
77544;SDS011;66672;50.328;7.610;2023-02-04T06:32:34;16.80;;;7.50;;
77544;SDS011;66672;50.328;7.610;2023-02-04T06:34:59;19.60;;;7.25;;
77544;SDS011;66672;50.328;7.610;2023-02-04T06:37:25;16.00;;;6.55;;
77544;SDS011;66672;50.328;7.610;2023-02-04T06:39:50;16.00;;;7.03;;
77544;SDS011;66672;50.328;7.610;2023-02-04T06:42:16;20.08;;;7.10;;
77544;SDS011;66672;50.328;7.610;2023-02-04T06:44:41;20.67;;;7.03;;
77544;SDS011;66672;50.328;7.610;2023-02-04T06:47:06;18.17;;;7.15;;
77544;SDS011;66672;50.328;7.610;2023-02-04T06:49:32;19.95;;;6.72;;
77544;SDS011;66672;50.328;7.610;2023-02-04T06:51:57;20.48;;;6.65;;
77544;SDS011;66672;50.328;7.610;2023-02-04T06:54:22;17.67;;;7.65;;
77544;SDS011;66672;50.328;7.610;2023-02-04T06:56:48;15.10;;;5.97;;
77544;SDS011;66672;50.328;7.610;2023-02-04T06:59:13;17.23;;;6.93;;
77544;SDS011;66672;50.328;7.610;2023-02-04T07:01:38;16.45;;;6.28;;
77544;SDS011;66672;50.328;7.610;2023-02-04T07:04:04;17.00;;;6.30;;
77544;SDS011;66672;50.328;7.610;2023-02-04T07:06:29;17.38;;;6.82;;
77544;SDS011;66672;50.328;7.610;2023-02-04T07:08:54;18.25;;;6.88;;
77544;SDS011;66672;50.328;7.610;2023-02-04T07:11:20;19.13;;;6.63;;
77544;SDS011;66672;50.328;7.610;2023-02-04T07:13:45;23.60;;;6.95;;
77544;SDS011;66672;50.328;7.610;2023-02-04T07:16:10;19.83;;;7.60;;
77544;SDS011;66672;50.328;7.610;2023-02-04T07:18:36;17.30;;;6.47;;
77544;SDS011;66672;50.328;7.610;2023-02-04T07:21:02;20.17;;;7.47;;
77544;SDS011;66672;50.328;7.610;2023-02-04T07:23:27;15.27;;;6.32;;
77544;SDS011;66672;50.328;7.610;2023-02-04T07:25:52;15.55;;;7.07;;
77544;SDS011;66672;50.328;7.610;2023-02-04T07:28:19;20.90;;;7.13;;
77544;SDS011;66672;50.328;7.610;2023-02-04T07:30:45;22.30;;;7.10;;
77544;SDS011;66672;50.328;7.610;2023-02-04T07:33:10;18.98;;;6.18;;
77544;SDS011;66672;50.328;7.610;2023-02-04T07:35:36;19.02;;;6.80;;
77544;SDS011;66672;50.328;7.610;2023-02-04T07:38:04;16.75;;;7.70;;
77544;SDS011;66672;50.328;7.610;2023-02-04T07:40:29;25.35;;;7.43;;
77544;SDS011;66672;50.328;7.610;2023-02-04T07:42:55;21.15;;;7.40;;
77544;SDS011;66672;50.328;7.610;2023-02-04T07:45:20;19.77;;;6.32;;
77544;SDS011;66672;50.328;7.610;2023-02-04T07:47:45;19.73;;;6.43;;
77544;SDS011;66672;50.328;7.610;2023-02-04T07:50:11;23.83;;;6.15;;
77544;SDS011;66672;50.328;7.610;2023-02-04T07:52:36;21.90;;;7.55;;
77544;SDS011;66672;50.328;7.610;2023-02-04T07:55:02;23.23;;;7.53;;
77544;SDS011;66672;50.328;7.610;2023-02-04T07:57:28;18.70;;;7.20;;
77544;SDS011;66672;50.328;7.610;2023-02-04T07:59:54;20.27;;;7.45;;
77544;SDS011;66672;50.328;7.610;2023-02-04T08:02:19;18.33;;;7.00;;
77544;SDS011;66672;50.328;7.610;2023-02-04T08:04:44;21.60;;;7.20;;
77544;SDS011;66672;50.328;7.610;2023-02-04T08:07:10;20.55;;;6.88;;
77544;SDS011;66672;50.328;7.610;2023-02-04T08:09:35;20.98;;;7.20;;
77544;SDS011;66672;50.328;7.610;2023-02-04T08:12:00;19.33;;;7.03;;
77544;SDS011;66672;50.328;7.610;2023-02-04T08:14:25;19.85;;;7.32;;
77544;SDS011;66672;50.328;7.610;2023-02-04T08:16:51;24.70;;;8.25;;
77544;SDS011;66672;50.328;7.610;2023-02-04T08:19:16;24.90;;;7.78;;
77544;SDS011;66672;50.328;7.610;2023-02-04T08:21:44;23.52;;;8.35;;
77544;SDS011;66672;50.328;7.610;2023-02-04T08:24:10;24.58;;;7.65;;
77544;SDS011;66672;50.328;7.610;2023-02-04T08:26:36;19.48;;;7.22;;
77544;SDS011;66672;50.328;7.610;2023-02-04T08:29:02;19.33;;;7.60;;
77544;SDS011;66672;50.328;7.610;2023-02-04T08:31:27;25.50;;;9.82;;
77544;SDS011;66672;50.328;7.610;2023-02-04T08:33:53;19.20;;;7.03;;
77544;SDS011;66672;50.328;7.610;2023-02-04T08:36:18;20.80;;;7.90;;
77544;SDS011;66672;50.328;7.610;2023-02-04T08:38:43;18.48;;;7.55;;
77544;SDS011;66672;50.328;7.610;2023-02-04T08:41:09;24.10;;;8.40;;
77544;SDS011;66672;50.328;7.610;2023-02-04T08:43:34;21.60;;;8.38;;
77544;SDS011;66672;50.328;7.610;2023-02-04T08:46:00;18.63;;;7.55;;
77544;SDS011;66672;50.328;7.610;2023-02-04T08:48:26;24.90;;;8.20;;
77544;SDS011;66672;50.328;7.610;2023-02-04T08:50:51;23.75;;;8.65;;
77544;SDS011;66672;50.328;7.610;2023-02-04T08:53:16;21.58;;;8.13;;
77544;SDS011;66672;50.328;7.610;2023-02-04T08:55:42;22.73;;;8.52;;
77544;SDS011;66672;50.328;7.610;2023-02-04T08:58:07;20.35;;;7.72;;
77544;SDS011;66672;50.328;7.610;2023-02-04T09:00:32;18.95;;;7.70;;
77544;SDS011;66672;50.328;7.610;2023-02-04T09:02:58;21.63;;;8.45;;
77544;SDS011;66672;50.328;7.610;2023-02-04T09:05:23;23.98;;;8.30;;
77544;SDS011;66672;50.328;7.610;2023-02-04T09:07:48;29.05;;;10.63;;
77544;SDS011;66672;50.328;7.610;2023-02-04T09:10:14;23.23;;;8.15;;
77544;SDS011;66672;50.328;7.610;2023-02-04T09:12:39;18.13;;;7.95;;
77544;SDS011;66672;50.328;7.610;2023-02-04T09:15:06;25.17;;;8.75;;
77544;SDS011;66672;50.328;7.610;2023-02-04T09:17:34;25.48;;;8.45;;
77544;SDS011;66672;50.328;7.610;2023-02-04T09:19:59;23.13;;;8.50;;
77544;SDS011;66672;50.328;7.610;2023-02-04T09:22:25;23.77;;;8.13;;
77544;SDS011;66672;50.328;7.610;2023-02-04T09:24:50;21.42;;;8.35;;
77544;SDS011;66672;50.328;7.610;2023-02-04T09:27:15;22.75;;;7.53;;
77544;SDS011;66672;50.328;7.610;2023-02-04T09:29:41;26.55;;;7.90;;
77544;SDS011;66672;50.328;7.610;2023-02-04T09:32:06;24.85;;;9.95;;
77544;SDS011;66672;50.328;7.610;2023-02-04T09:34:31;25.83;;;8.00;;
77544;SDS011;66672;50.328;7.610;2023-02-04T09:36:57;31.27;;;8.20;;
77544;SDS011;66672;50.328;7.610;2023-02-04T09:39:22;26.70;;;9.05;;
77544;SDS011;66672;50.328;7.610;2023-02-04T09:41:47;26.05;;;8.30;;
77544;SDS011;66672;50.328;7.610;2023-02-04T09:44:15;26.77;;;8.65;;
77544;SDS011;66672;50.328;7.610;2023-02-04T09:46:47;21.75;;;8.68;;
77544;SDS011;66672;50.328;7.610;2023-02-04T09:49:23;29.80;;;9.18;;
77544;SDS011;66672;50.328;7.610;2023-02-04T09:51:50;28.33;;;9.50;;
77544;SDS011;66672;50.328;7.610;2023-02-04T09:54:20;21.42;;;8.35;;
77544;SDS011;66672;50.328;7.610;2023-02-04T09:56:46;22.77;;;8.95;;
77544;SDS011;66672;50.328;7.610;2023-02-04T09:59:13;20.13;;;8.65;;
77544;SDS011;66672;50.328;7.610;2023-02-04T10:01:40;26.02;;;8.75;;
77544;SDS011;66672;50.328;7.610;2023-02-04T10:04:10;24.25;;;8.40;;
77544;SDS011;66672;50.328;7.610;2023-02-04T10:06:38;20.55;;;8.35;;
77544;SDS011;66672;50.328;7.610;2023-02-04T10:09:04;25.20;;;9.40;;
77544;SDS011;66672;50.328;7.610;2023-02-04T10:11:31;25.67;;;9.18;;
77544;SDS011;66672;50.328;7.610;2023-02-04T10:14:00;24.95;;;8.82;;
77544;SDS011;66672;50.328;7.610;2023-02-04T10:16:27;28.27;;;8.65;;
77544;SDS011;66672;50.328;7.610;2023-02-04T10:19:00;19.85;;;8.57;;
77544;SDS011;66672;50.328;7.610;2023-02-04T10:21:29;21.08;;;8.43;;
77544;SDS011;66672;50.328;7.610;2023-02-04T10:23:56;25.02;;;8.18;;
77544;SDS011;66672;50.328;7.610;2023-02-04T10:26:28;19.52;;;8.55;;
77544;SDS011;66672;50.328;7.610;2023-02-04T10:29:02;26.63;;;8.93;;
77544;SDS011;66672;50.328;7.610;2023-02-04T10:31:42;20.65;;;8.05;;
77544;SDS011;66672;50.328;7.610;2023-02-04T10:34:13;30.23;;;8.80;;
77544;SDS011;66672;50.328;7.610;2023-02-04T10:36:42;20.33;;;8.40;;
77544;SDS011;66672;50.328;7.610;2023-02-04T10:41:55;20.77;;;7.65;;
77544;SDS011;66672;50.328;7.610;2023-02-04T10:44:30;22.42;;;9.15;;
77544;SDS011;66672;50.328;7.610;2023-02-04T10:47:00;20.13;;;7.60;;
77544;SDS011;66672;50.328;7.610;2023-02-04T10:49:27;22.00;;;8.70;;
77544;SDS011;66672;50.328;7.610;2023-02-04T10:51:52;32.65;;;9.23;;
77544;SDS011;66672;50.328;7.610;2023-02-04T10:54:19;21.67;;;7.95;;
77544;SDS011;66672;50.328;7.610;2023-02-04T10:59:24;26.20;;;7.78;;
77544;SDS011;66672;50.328;7.610;2023-02-04T11:01:56;25.30;;;7.30;;
77544;SDS011;66672;50.328;7.610;2023-02-04T11:04:27;32.08;;;7.55;;
77544;SDS011;66672;50.328;7.610;2023-02-04T11:06:52;19.70;;;8.07;;
77544;SDS011;66672;50.328;7.610;2023-02-04T11:09:19;20.73;;;6.78;;
77544;SDS011;66672;50.328;7.610;2023-02-04T11:11:46;32.53;;;7.57;;
77544;SDS011;66672;50.328;7.610;2023-02-04T11:14:23;23.90;;;7.75;;
77544;SDS011;66672;50.328;7.610;2023-02-04T11:16:50;22.23;;;7.90;;
77544;SDS011;66672;50.328;7.610;2023-02-04T11:19:29;23.50;;;7.70;;
77544;SDS011;66672;50.328;7.610;2023-02-04T11:22:03;26.02;;;7.65;;
77544;SDS011;66672;50.328;7.610;2023-02-04T11:24:44;24.88;;;7.00;;
77544;SDS011;66672;50.328;7.610;2023-02-04T11:27:35;22.73;;;6.90;;
77544;SDS011;66672;50.328;7.610;2023-02-04T11:30:06;25.20;;;6.88;;
77544;SDS011;66672;50.328;7.610;2023-02-04T11:32:43;21.95;;;7.57;;
77544;SDS011;66672;50.328;7.610;2023-02-04T11:35:20;16.48;;;6.55;;
77544;SDS011;66672;50.328;7.610;2023-02-04T11:37:48;22.95;;;6.40;;
77544;SDS011;66672;50.328;7.610;2023-02-04T11:40:33;16.85;;;6.68;;
77544;SDS011;66672;50.328;7.610;2023-02-04T11:43:07;20.23;;;5.85;;
77544;SDS011;66672;50.328;7.610;2023-02-04T11:45:35;22.90;;;7.00;;
77544;SDS011;66672;50.328;7.610;2023-02-04T11:48:22;19.65;;;6.90;;
77544;SDS011;66672;50.328;7.610;2023-02-04T11:50:57;24.55;;;6.50;;
77544;SDS011;66672;50.328;7.610;2023-02-04T11:53:31;22.13;;;6.32;;
77544;SDS011;66672;50.328;7.610;2023-02-04T11:55:58;21.98;;;6.85;;
77544;SDS011;66672;50.328;7.610;2023-02-04T11:58:23;21.92;;;6.05;;
77544;SDS011;66672;50.328;7.610;2023-02-04T12:00:50;17.02;;;6.47;;
77544;SDS011;66672;50.328;7.610;2023-02-04T12:03:21;14.48;;;5.88;;
77544;SDS011;66672;50.328;7.610;2023-02-04T12:05:51;18.25;;;5.43;;
77544;SDS011;66672;50.328;7.610;2023-02-04T12:13:30;21.25;;;4.70;;
77544;SDS011;66672;50.328;7.610;2023-02-04T12:18:24;22.77;;;4.95;;
77544;SDS011;66672;50.328;7.610;2023-02-04T12:20:52;19.45;;;5.60;;
77544;SDS011;66672;50.328;7.610;2023-02-04T12:23:17;19.92;;;6.80;;
77544;SDS011;66672;50.328;7.610;2023-02-04T12:25:43;24.70;;;5.82;;
77544;SDS011;66672;50.328;7.610;2023-02-04T12:28:08;17.92;;;5.47;;
77544;SDS011;66672;50.328;7.610;2023-02-04T12:30:33;14.48;;;5.35;;
77544;SDS011;66672;50.328;7.610;2023-02-04T12:33:00;17.90;;;4.97;;
77544;SDS011;66672;50.328;7.610;2023-02-04T12:35:25;14.02;;;4.80;;
77544;SDS011;66672;50.328;7.610;2023-02-04T12:37:50;18.63;;;5.68;;
77544;SDS011;66672;50.328;7.610;2023-02-04T12:40:16;16.05;;;4.70;;
77544;SDS011;66672;50.328;7.610;2023-02-04T12:42:43;17.27;;;5.97;;
77544;SDS011;66672;50.328;7.610;2023-02-04T12:45:09;14.05;;;4.20;;
77544;SDS011;66672;50.328;7.610;2023-02-04T12:47:35;23.20;;;9.20;;
77544;SDS011;66672;50.328;7.610;2023-02-04T12:50:01;15.48;;;6.10;;
77544;SDS011;66672;50.328;7.610;2023-02-04T12:52:26;19.55;;;6.40;;
77544;SDS011;66672;50.328;7.610;2023-02-04T12:54:51;13.20;;;5.13;;
77544;SDS011;66672;50.328;7.610;2023-02-04T12:57:17;16.90;;;5.05;;
77544;SDS011;66672;50.328;7.610;2023-02-04T12:59:44;15.23;;;4.30;;
77544;SDS011;66672;50.328;7.610;2023-02-04T13:02:13;17.23;;;4.35;;
77544;SDS011;66672;50.328;7.610;2023-02-04T13:04:38;12.00;;;4.15;;
77544;SDS011;66672;50.328;7.610;2023-02-04T13:07:05;12.27;;;3.80;;
77544;SDS011;66672;50.328;7.610;2023-02-04T13:09:31;19.25;;;4.38;;
77544;SDS011;66672;50.328;7.610;2023-02-04T13:11:57;17.27;;;4.93;;
77544;SDS011;66672;50.328;7.610;2023-02-04T13:14:23;13.80;;;4.65;;
77544;SDS011;66672;50.328;7.610;2023-02-04T13:16:48;14.77;;;4.32;;
77544;SDS011;66672;50.328;7.610;2023-02-04T13:19:13;15.30;;;4.10;;
77544;SDS011;66672;50.328;7.610;2023-02-04T13:21:39;16.02;;;4.97;;
77544;SDS011;66672;50.328;7.610;2023-02-04T13:24:04;10.38;;;4.50;;
77544;SDS011;66672;50.328;7.610;2023-02-04T13:26:29;18.83;;;5.55;;
77544;SDS011;66672;50.328;7.610;2023-02-04T13:28:55;14.35;;;4.63;;
77544;SDS011;66672;50.328;7.610;2023-02-04T13:31:20;16.02;;;5.90;;
77544;SDS011;66672;50.328;7.610;2023-02-04T13:33:45;12.80;;;3.90;;
77544;SDS011;66672;50.328;7.610;2023-02-04T13:36:10;11.38;;;3.75;;
77544;SDS011;66672;50.328;7.610;2023-02-04T13:38:36;12.90;;;3.80;;
77544;SDS011;66672;50.328;7.610;2023-02-04T13:41:01;11.98;;;3.78;;
77544;SDS011;66672;50.328;7.610;2023-02-04T13:43:26;10.65;;;3.50;;
77544;SDS011;66672;50.328;7.610;2023-02-04T13:45:52;11.10;;;3.60;;
77544;SDS011;66672;50.328;7.610;2023-02-04T13:48:17;11.23;;;3.97;;
77544;SDS011;66672;50.328;7.610;2023-02-04T13:50:42;15.90;;;3.90;;
77544;SDS011;66672;50.328;7.610;2023-02-04T13:53:08;14.57;;;4.00;;
77544;SDS011;66672;50.328;7.610;2023-02-04T13:55:33;12.23;;;4.35;;
77544;SDS011;66672;50.328;7.610;2023-02-04T13:57:59;18.58;;;4.75;;
77544;SDS011;66672;50.328;7.610;2023-02-04T14:00:24;9.27;;;3.63;;
77544;SDS011;66672;50.328;7.610;2023-02-04T14:02:49;9.93;;;3.35;;
77544;SDS011;66672;50.328;7.610;2023-02-04T14:05:15;9.05;;;3.78;;
77544;SDS011;66672;50.328;7.610;2023-02-04T14:07:40;14.00;;;4.22;;
77544;SDS011;66672;50.328;7.610;2023-02-04T14:10:05;11.48;;;4.07;;
77544;SDS011;66672;50.328;7.610;2023-02-04T14:12:32;13.77;;;4.32;;
77544;SDS011;66672;50.328;7.610;2023-02-04T14:14:57;12.48;;;5.07;;
77544;SDS011;66672;50.328;7.610;2023-02-04T14:17:22;15.23;;;4.07;;
77544;SDS011;66672;50.328;7.610;2023-02-04T14:19:48;12.02;;;4.15;;
77544;SDS011;66672;50.328;7.610;2023-02-04T14:22:13;9.18;;;4.18;;
77544;SDS011;66672;50.328;7.610;2023-02-04T14:24:38;16.83;;;4.50;;
77544;SDS011;66672;50.328;7.610;2023-02-04T14:27:06;11.60;;;4.60;;
77544;SDS011;66672;50.328;7.610;2023-02-04T14:29:34;11.77;;;4.20;;
77544;SDS011;66672;50.328;7.610;2023-02-04T14:32:00;11.63;;;4.15;;
77544;SDS011;66672;50.328;7.610;2023-02-04T14:34:26;10.90;;;3.60;;
77544;SDS011;66672;50.328;7.610;2023-02-04T14:36:51;14.07;;;4.25;;
77544;SDS011;66672;50.328;7.610;2023-02-04T14:39:16;9.88;;;3.83;;
77544;SDS011;66672;50.328;7.610;2023-02-04T14:41:42;13.68;;;4.47;;
77544;SDS011;66672;50.328;7.610;2023-02-04T14:44:08;10.70;;;2.97;;
77544;SDS011;66672;50.328;7.610;2023-02-04T14:46:33;12.32;;;3.78;;
77544;SDS011;66672;50.328;7.610;2023-02-04T14:48:58;14.20;;;4.20;;